Hammondsville, Vermont
Current Conditions -  °F | °C
As of 6:54 PM on Friday 21 Nov 2014 (Local Time) from KVSF Reporting Station
Clear Clear  
Wind Chill: -4°   Ceiling: Unl
Heat Index: -4°   Visibility: 10mi
Dew Point: -17°   Wind: 3mph
Humidity: 37%   Direction: NA
Pressure: 30.34"   Gusts: NA
Location:  43.4984°N, 72.5943°W
Report Text: KVSF 212354Z AUTO VRB03KT 10SM CLR M04/M17 A3034 RMK AO2 SLP283 60000 T10391167 11011 21044 51028
Loading
Personal Weather Stations






























Interactive Weather Map New forecast layout! Learn more

10-Day Weather Forecast

Advertisements
Track Severe Weather on mobile